Terminal Aerodrome Forecast
Issued by NWS

Home | Current Version | Previous Version | Text Only | Print | Product List | Glossary On
Versions: 1 2 3 4 5 6 7 8 9 10 11 12 13 14 15 16 17 18 19 20 21 22 23 24 25 26 27 28 29 30 31 32 33 34 35 36 37 38 39 40 41 42 43 44 45 46 47 48 49 50
000
FTUS44 KFWD 170528
TAFAFW
TAF
KAFW 170528Z 1706/1806 20017KT P6SM BKN012
     FM170730 23013KT P6SM FEW015 SCT250
     FM171300 30011KT P6SM SCT008 OVC012
      TEMPO 1713/1716 BKN008
     FM171700 33011KT P6SM BKN022
     FM171900 34009KT P6SM BKN250
     FM180100 VRB03KT P6SM SCT250
     FM180500 16006KT P6SM FEW015 SCT250=

USA.gov is the U.S. government's official web portal to all federal, state and local government web resources and services.